Time;durP1;ratioP1;P1;durP2;ratioP2;P2;SDS_P1;SDS_P2;PMS_P1;PMS_P2;Temp;Humidity;BMP_temperature;BMP_pressure;BME280_temperature;BME280_humidity;BME280_pressure;Samples;Min_cycle;Max_cycle;Signal;HPM_P1;HPM_P2
2022/04/08 08:49:34;;;;;;;4.45;4.03;;;11.00;99.90;;;;;;5150134;27;20172;-76
2022/04/08 08:52:06;;;;;;;4.28;3.88;;;11.40;99.90;;;;;;5129697;28;20047;-75
2022/04/08 08:54:35;;;;;;;4.35;3.42;;;11.70;99.90;;;;;;5123833;28;20044;-75
2022/04/08 08:57:03;;;;;;;4.10;3.50;;;12.00;99.90;;;;;;5114779;28;20048;-71
2022/04/08 08:59:30;;;;;;;4.15;3.75;;;12.20;99.90;;;;;;5129210;27;20514;-70
2022/04/08 09:02:02;;;;;;;3.67;3.38;;;12.10;99.90;;;;;;5080171;27;20049;-71
2022/04/08 09:04:30;;;;;;;3.97;3.57;;;12.00;99.90;;;;;;5049389;28;20099;-71
2022/04/08 09:06:59;;;;;;;3.92;3.63;;;11.80;99.90;;;;;;5047363;28;20337;-72
2022/04/08 09:09:30;;;;;;;3.42;3.13;;;11.60;99.90;;;;;;5063006;28;20584;-71
2022/04/08 09:11:58;;;;;;;4.15;3.53;;;11.30;99.90;;;;;;5061836;28;20493;-71
2022/04/08 09:14:30;;;;;;;4.70;4.20;;;11.20;99.90;;;;;;5044331;28;20045;-71
2022/04/08 09:17:02;;;;;;;4.85;4.45;;;11.20;99.90;;;;;;5043581;28;20060;-71
2022/04/08 09:19:33;;;;;;;4.95;4.43;;;11.20;99.90;;;;;;5045223;28;20060;-72
2022/04/08 09:22:03;;;;;;;4.95;4.05;;;11.10;99.90;;;;;;5028385;28;20049;-73
2022/04/08 09:24:31;;;;;;;4.68;4.22;;;11.20;99.90;;;;;;5027854;28;20520;-72
2022/04/08 09:26:58;;;;;;;4.30;3.90;;;11.20;99.90;;;;;;5046987;28;20071;-72
2022/04/08 09:29:27;;;;;;;5.20;4.70;;;11.20;99.90;;;;;;5047142;28;20053;-71
2022/04/08 09:31:57;;;;;;;5.05;4.63;;;11.10;99.90;;;;;;5046836;28;20433;-71
2022/04/08 09:34:25;;;;;;;4.40;4.00;;;11.10;99.90;;;;;;5045903;28;20045;-72
2022/04/08 09:36:53;;;;;;;4.43;4.00;;;11.10;99.90;;;;;;5042918;28;20060;-72
2022/04/08 09:39:21;;;;;;;4.88;4.47;;;11.10;99.90;;;;;;5046528;28;20454;-72
2022/04/08 09:41:52;;;;;;;5.43;4.32;;;11.10;99.90;;;;;;5041129;28;20052;-73
2022/04/08 09:44:25;;;;;;;5.53;4.15;;;11.20;99.90;;;;;;5039143;28;20057;-72
2022/04/08 09:46:52;;;;;;;;;;;11.10;99.90;;;;;;5054706;28;20057;-71
2022/04/08 09:49:20;;;;;;;4.75;4.35;;;11.10;99.90;;;;;;5044750;28;19925;-71
2022/04/08 09:51:51;;;;;;;5.55;5.05;;;11.00;99.90;;;;;;5043591;28;20049;-71
2022/04/08 09:54:28;;;;;;;5.20;4.80;;;10.90;99.90;;;;;;5046847;28;20052;-73
2022/04/08 09:56:59;;;;;;;5.88;4.53;;;10.90;99.90;;;;;;5031413;28;20081;-72
2022/04/08 09:59:30;;;;;;;4.65;4.25;;;11.00;99.90;;;;;;5031108;28;20053;-72
2022/04/08 10:02:03;;;;;;;4.65;4.30;;;11.00;99.90;;;;;;5031279;28;20049;-72
2022/04/08 10:04:34;;;;;;;5.20;4.75;;;11.00;99.90;;;;;;5014633;28;20461;-71
2022/04/08 10:07:07;;;;;;;5.68;4.50;;;11.00;99.90;;;;;;5015261;28;20056;-72
2022/04/08 10:09:48;;;;;;;5.72;5.22;;;11.00;99.90;;;;;;5033043;28;20599;-71
2022/04/08 10:12:26;;;;;;;5.88;4.40;;;11.00;99.90;;;;;;5030187;28;20497;-75
2022/04/08 10:15:06;;;;;;;7.22;4.93;;;11.00;99.90;;;;;;5022076;28;20049;-75
2022/04/08 10:17:34;;;;;;;5.03;4.53;;;10.90;99.90;;;;;;5021730;28;20072;-77
2022/04/08 10:20:24;;;;;;;6.57;5.32;;;11.00;99.90;;;;;;5022643;28;20093;-75
2022/04/08 10:22:52;;;;;;;7.10;5.13;;;11.00;99.90;;;;;;5023588;28;20390;-72
2022/04/08 10:25:26;;;;;;;5.53;4.97;;;11.00;99.90;;;;;;5025983;28;20410;-76
2022/04/08 10:28:00;;;;;;;8.00;5.35;;;11.10;99.90;;;;;;5018988;28;20073;-72
2022/04/08 10:30:28;;;;;;;6.90;6.00;;;11.10;99.90;;;;;;5014756;28;20058;-76
2022/04/08 10:33:13;;;;;;;6.93;5.72;;;11.10;99.90;;;;;;5027873;28;20046;-71
2022/04/08 10:35:52;;;;;;;7.85;6.18;;;11.10;99.90;;;;;;5032921;28;20144;-71
2022/04/08 10:38:26;;;;;;;9.38;6.72;;;11.00;99.90;;;;;;5030017;28;20061;-72
2022/04/08 10:40:57;;;;;;;9.82;6.93;;;10.90;99.90;;;;;;5046770;28;20061;-72
2022/04/08 10:43:26;;;;;;;9.40;7.25;;;10.80;99.90;;;;;;5032337;28;20502;-70
2022/04/08 10:45:56;;;;;;;7.75;6.80;;;10.80;99.90;;;;;;5031392;28;20123;-75
2022/04/08 10:48:31;;;;;;;9.95;6.97;;;10.70;99.90;;;;;;5032549;28;20053;-76
2022/04/08 10:51:05;;;;;;;12.27;7.47;;;10.60;99.90;;;;;;5030670;28;20049;-77
2022/04/08 10:53:39;;;;;;;8.82;6.35;;;10.60;99.90;;;;;;5014603;28;20053;-71
2022/04/08 10:56:13;;;;;;;12.52;7.72;;;10.60;99.90;;;;;;5032333;28;20128;-71
2022/04/08 10:58:42;;;;;;;;;;;10.50;99.90;;;;;;5051065;28;20053;-75
2022/04/08 11:01:21;;;;;;;11.57;7.43;;;10.40;99.90;;;;;;5052224;28;19978;-75
2022/04/08 11:04:02;;;;;;;9.63;7.28;;;10.40;99.90;;;;;;5051122;28;20450;-75
2022/04/08 11:06:32;;;;;;;10.43;6.50;;;10.40;99.90;;;;;;5051044;28;20060;-72
2022/04/08 11:09:05;;;;;;;11.30;6.72;;;10.40;99.90;;;;;;5052426;28;20091;-71
2022/04/08 11:11:36;;;;;;;6.97;5.63;;;10.40;99.90;;;;;;5049857;28;20045;-70
2022/04/08 11:14:05;;;;;;;12.55;6.78;;;10.40;99.90;;;;;;5035459;28;20521;-75
2022/04/08 11:16:35;;;;;;;7.80;5.75;;;10.40;99.90;;;;;;5030582;28;20099;-74
2022/04/08 11:19:06;;;;;;;8.60;5.80;;;10.50;99.90;;;;;;5032015;28;20057;-70
2022/04/08 11:21:40;;;;;;;6.50;5.43;;;10.60;99.90;;;;;;5031610;28;20077;-75
2022/04/08 11:24:13;;;;;;;6.65;5.50;;;10.50;99.90;;;;;;5030424;28;20527;-76
2022/04/08 11:26:48;;;;;;;10.82;5.50;;;10.50;99.90;;;;;;5031609;28;20501;-75
2022/04/08 11:29:21;;;;;;;6.53;5.88;;;10.50;99.90;;;;;;5028861;28;20527;-75
2022/04/08 11:31:51;;;;;;;8.55;5.10;;;10.50;99.90;;;;;;5029464;28;20395;-75
2022/04/08 11:34:19;;;;;;;5.88;5.20;;;10.40;99.90;;;;;;5028033;28;20045;-75
2022/04/08 11:36:47;;;;;;;7.50;5.70;;;10.30;99.90;;;;;;5028301;28;20559;-75
2022/04/08 11:39:21;;;;;;;7.95;4.65;;;10.10;99.90;;;;;;5026074;28;20567;-77
2022/04/08 11:41:55;;;;;;;6.93;5.10;;;9.80;99.90;;;;;;5030036;28;20053;-74
2022/04/08 11:44:23;;;;;;;6.10;4.35;;;9.70;99.90;;;;;;5013979;28;20600;-77
2022/04/08 11:46:51;;;;;;;7.18;4.80;;;9.70;99.90;;;;;;5031401;28;20053;-76
2022/04/08 11:49:21;;;;;;;6.97;4.70;;;9.70;99.90;;;;;;5031096;28;20123;-74
2022/04/08 11:51:48;;;;;;;7.22;4.28;;;9.70;99.90;;;;;;5030054;28;20063;-75
2022/04/08 11:54:16;;;;;;;6.25;5.60;;;9.60;99.90;;;;;;5030792;28;20482;-76
2022/04/08 11:56:50;;;;;;;5.40;4.90;;;9.70;99.90;;;;;;5033996;28;20115;-76
2022/04/08 11:59:21;;;;;;;7.60;4.35;;;9.70;99.90;;;;;;5050697;28;20084;-76
2022/04/08 12:01:48;;;;;;;6.32;4.43;;;9.70;99.90;;;;;;5049771;28;20053;-75
2022/04/08 12:04:19;;;;;;;5.00;4.40;;;9.70;99.90;;;;;;5051423;28;20053;-76
2022/04/08 12:06:52;;;;;;;4.22;3.83;;;9.70;99.90;;;;;;5050685;28;20139;-77
2022/04/08 12:09:21;;;;;;;3.63;3.33;;;9.60;99.90;;;;;;5040486;28;20092;-75
2022/04/08 12:12:04;;;;;;;5.07;2.35;;;9.60;99.90;;;;;;5012632;28;20140;-76
2022/04/08 12:14:36;;;;;;;2.67;2.28;;;9.60;99.90;;;;;;5028418;28;20057;-75
2022/04/08 12:17:04;;;;;;;2.25;2.00;;;9.50;99.90;;;;;;5029554;28;20041;-77
2022/04/08 12:19:40;;;;;;;6.63;2.45;;;9.50;99.90;;;;;;5030776;28;20076;-75
2022/04/08 12:22:11;;;;;;;3.75;2.72;;;9.40;99.90;;;;;;5029256;28;20084;-76
2022/04/08 12:24:41;;;;;;;3.45;2.60;;;9.40;99.90;;;;;;5029515;28;20057;-75
2022/04/08 12:27:13;;;;;;;2.38;2.17;;;9.40;99.90;;;;;;5030405;28;20037;-75
2022/04/08 12:29:42;;;;;;;3.25;2.58;;;9.40;99.90;;;;;;5026797;28;20371;-75
2022/04/08 12:32:17;;;;;;;4.00;2.75;;;9.30;99.90;;;;;;5022867;28;20145;-74
2022/04/08 12:34:46;;;;;;;5.25;3.20;;;9.30;99.90;;;;;;5031255;28;20050;-74
2022/04/08 12:37:16;;;;;;;6.47;3.10;;;9.50;99.90;;;;;;5022567;28;20069;-74
2022/04/08 12:39:46;;;;;;;4.63;3.15;;;9.70;99.90;;;;;;5021053;28;20056;-75
2022/04/08 12:42:14;;;;;;;3.65;2.78;;;9.80;99.90;;;;;;5028093;28;20050;-76
2022/04/08 12:44:46;;;;;;;5.18;2.85;;;10.00;99.90;;;;;;5027925;28;20081;-75
2022/04/08 12:47:13;;;;;;;3.85;2.75;;;10.10;99.90;;;;;;5026695;28;20057;-75
2022/04/08 12:49:41;;;;;;;2.60;2.40;;;10.30;99.90;;;;;;5011249;28;20045;-76
2022/04/08 12:52:08;;;;;;;2.67;2.47;;;10.40;99.90;;;;;;5022023;28;20057;-75
2022/04/08 12:54:36;;;;;;;4.75;2.40;;;10.40;99.90;;;;;;5030102;28;20065;-71
2022/04/08 12:57:06;;;;;;;3.65;3.30;;;10.40;99.90;;;;;;5005694;28;20044;-73
2022/04/08 12:59:33;;;;;;;2.92;2.70;;;10.40;99.90;;;;;;5065632;28;20084;-72
2022/04/08 13:02:02;;;;;;;2.63;2.08;;;10.30;99.90;;;;;;5048924;28;20052;-72
2022/04/08 13:04:30;;;;;;;3.00;2.45;;;10.30;99.90;;;;;;5010092;28;20112;-72
2022/04/08 13:06:59;;;;;;;2.88;2.03;;;10.30;99.90;;;;;;5010537;28;20042;-72
2022/04/08 13:09:26;;;;;;;4.28;2.42;;;10.40;99.90;;;;;;5011106;28;20046;-75
2022/04/08 13:11:54;;;;;;;3.70;2.63;;;10.40;99.90;;;;;;5009261;28;20045;-71
2022/04/08 13:14:21;;;;;;;3.90;2.00;;;10.50;99.90;;;;;;5016889;28;20111;-70
2022/04/08 13:16:48;;;;;;;3.22;3.00;;;10.70;99.90;;;;;;5029543;28;20502;-72
2022/04/08 13:19:20;;;;;;;3.33;2.35;;;10.90;99.90;;;;;;5027124;28;20060;-71
2022/04/08 13:21:47;;;;;;;4.72;2.08;;;10.90;99.90;;;;;;5025940;28;20049;-71
2022/04/08 13:24:16;;;;;;;2.42;1.90;;;10.90;99.90;;;;;;5029094;28;20523;-72
2022/04/08 13:26:44;;;;;;;6.78;1.80;;;10.90;99.90;;;;;;5029533;28;20070;-72
2022/04/08 13:29:12;;;;;;;4.30;2.10;;;10.80;99.90;;;;;;5033164;28;20041;-75
2022/04/08 13:31:40;;;;;;;3.42;2.28;;;10.60;99.90;;;;;;5029439;28;20050;-75
2022/04/08 13:34:08;;;;;;;3.03;2.22;;;10.60;99.90;;;;;;5029197;28;20144;-76
2022/04/08 13:36:36;;;;;;;5.50;2.20;;;10.50;99.90;;;;;;5046243;28;20118;-76
2022/04/08 13:39:04;;;;;;;3.22;1.95;;;10.50;99.90;;;;;;5029801;28;20046;-77
2022/04/08 13:41:33;;;;;;;2.50;2.13;;;10.50;99.90;;;;;;5032901;28;20077;-74
2022/04/08 13:44:00;;;;;;;2.33;2.13;;;10.50;99.90;;;;;;5017304;28;20043;-76
2022/04/08 13:46:28;;;;;;;2.60;2.00;;;10.40;99.90;;;;;;5033182;28;20520;-73
2022/04/08 13:48:57;;;;;;;3.00;2.28;;;10.30;99.90;;;;;;5026417;28;20042;-74
2022/04/08 13:51:25;;;;;;;1.52;1.42;;;10.30;99.90;;;;;;5030983;28;20147;-73
2022/04/08 13:53:54;;;;;;;3.10;1.90;;;10.20;99.90;;;;;;5029258;28;20540;-73
2022/04/08 13:56:22;;;;;;;2.17;1.80;;;10.10;99.90;;;;;;5032212;28;20056;-76
2022/04/08 13:58:49;;;;;;;1.50;1.40;;;10.10;99.90;;;;;;5033115;28;20046;-75
2022/04/08 14:01:17;;;;;;;2.08;1.35;;;10.30;99.90;;;;;;5029400;28;20052;-75
2022/04/08 14:03:44;;;;;;;2.45;1.70;;;10.40;99.90;;;;;;5022178;28;20042;-76
2022/04/08 14:06:13;;;;;;;2.97;1.52;;;10.50;99.90;;;;;;5023968;28;20456;-75
2022/04/08 14:08:41;;;;;;;1.17;1.17;;;10.60;99.90;;;;;;5017780;28;20076;-75
2022/04/08 14:11:10;;;;;;;2.67;1.80;;;10.60;99.90;;;;;;5030144;28;20037;-75
2022/04/08 14:13:37;;;;;;;2.75;2.13;;;10.50;99.90;;;;;;5043827;28;20090;-74
2022/04/08 14:16:05;;;;;;;3.50;1.60;;;10.40;99.90;;;;;;4995217;28;20056;-74
2022/04/08 14:18:32;;;;;;;3.83;1.80;;;10.30;99.90;;;;;;5013309;28;20056;-73
2022/04/08 14:21:00;;;;;;;4.05;1.95;;;10.30;99.90;;;;;;5031696;28;20053;-73
2022/04/08 14:23:33;;;;;;;2.97;1.95;;;10.20;99.90;;;;;;5039105;28;20065;-73
2022/04/08 14:26:01;;;;;;;3.10;2.40;;;10.10;99.90;;;;;;5024165;28;20060;-74
2022/04/08 14:28:30;;;;;;;2.88;2.17;;;10.00;99.90;;;;;;5014179;28;20045;-72
2022/04/08 14:30:58;;;;;;;5.20;2.30;;;10.00;99.90;;;;;;5028539;28;20072;-74
2022/04/08 14:33:26;;;;;;;2.50;2.30;;;10.00;99.90;;;;;;5029928;28;20433;-77
2022/04/08 14:35:53;;;;;;;3.22;2.60;;;10.00;99.90;;;;;;5028026;28;20576;-78
2022/04/08 14:38:21;;;;;;;3.55;2.58;;;10.00;99.90;;;;;;5011026;28;20060;-73
2022/04/08 14:40:49;;;;;;;4.18;2.72;;;10.00;99.90;;;;;;4994366;28;20457;-74
2022/04/08 14:43:19;;;;;;;2.38;2.17;;;10.10;99.90;;;;;;5012246;28;20522;-77
2022/04/08 14:45:57;;;;;;;2.08;1.80;;;10.10;99.90;;;;;;5012402;28;20053;-72
2022/04/08 14:48:36;;;;;;;5.85;2.08;;;10.00;99.90;;;;;;5003148;28;20041;-77
2022/04/08 14:51:12;;;;;;;2.10;1.73;;;9.90;99.90;;;;;;5030577;28;20045;-77
2022/04/08 14:53:40;;;;;;;2.05;1.85;;;9.80;99.90;;;;;;5028520;28;20572;-72
2022/04/08 14:56:07;;;;;;;2.63;2.08;;;9.90;99.90;;;;;;5012424;28;20521;-76
2022/04/08 14:58:47;;;;;;;3.33;1.73;;;9.90;99.90;;;;;;5011791;28;20084;-77
2022/04/08 15:01:17;;;;;;;2.30;1.85;;;9.90;99.90;;;;;;5032101;28;20053;-77
2022/04/08 15:03:45;;;;;;;3.17;1.70;;;9.90;99.90;;;;;;5028325;28;20413;-77
2022/04/08 15:06:14;;;;;;;2.60;2.08;;;9.90;99.90;;;;;;5032462;28;20053;-75
2022/04/08 15:08:42;;;;;;;4.72;2.08;;;10.00;99.90;;;;;;5025691;28;20616;-76
2022/04/08 15:11:09;;;;;;;2.80;2.08;;;10.10;99.90;;;;;;5011549;28;20064;-77
2022/04/08 15:13:37;;;;;;;3.50;2.13;;;10.20;99.90;;;;;;5018085;28;20505;-76
2022/04/08 15:16:05;;;;;;;4.53;2.40;;;10.20;99.90;;;;;;5031788;28;20179;-76
2022/04/08 15:18:33;;;;;;;3.30;3.00;;;10.10;99.90;;;;;;5029502;28;20045;-77
2022/04/08 15:21:01;;;;;;;3.33;1.95;;;10.10;99.90;;;;;;5031584;28;20591;-78
2022/04/08 15:23:30;;;;;;;2.85;2.28;;;10.10;99.90;;;;;;5027338;28;20096;-76
2022/04/08 15:25:58;;;;;;;5.07;2.00;;;10.10;99.90;;;;;;5012509;28;20045;-75
2022/04/08 15:28:26;;;;;;;5.65;2.53;;;10.10;99.90;;;;;;5025043;28;20120;-78
2022/04/08 15:34:55;;;;;;;;;;;;;;;;;;;;;
2022/04/08 15:37:40;;;;;;;6.63;2.58;;;9.70;99.90;;;;;;5019361;28;20057;-71
2022/04/08 15:40:10;;;;;;;4.47;1.75;;;9.60;99.90;;;;;;5009551;28;20057;-72
2022/04/08 15:42:38;;;;;;;6.45;1.90;;;9.50;99.90;;;;;;5021766;28;20068;-73
2022/04/08 15:45:07;;;;;;;6.13;1.77;;;9.40;99.90;;;;;;5017361;28;20104;-73
2022/04/08 15:47:35;;;;;;;5.47;1.85;;;9.20;99.90;;;;;;5019929;28;20049;-76
2022/04/08 15:50:05;;;;;;;6.20;2.60;;;9.10;99.90;;;;;;5042099;28;20046;-77
2022/04/08 15:52:33;;;;;;;4.22;2.55;;;9.10;99.90;;;;;;5031635;28;20081;-75
2022/04/08 15:55:01;;;;;;;6.55;2.03;;;9.00;99.90;;;;;;5000861;28;20046;-73
2022/04/08 15:57:30;;;;;;;2.67;1.90;;;8.90;99.90;;;;;;5039440;28;20386;-73
2022/04/08 15:59:57;;;;;;;3.22;1.67;;;8.90;99.90;;;;;;5028341;28;20061;-73
2022/04/08 16:02:24;;;;;;;4.63;2.00;;;8.90;99.90;;;;;;5011562;28;20053;-75
2022/04/08 16:04:52;;;;;;;4.63;2.20;;;8.80;99.90;;;;;;5019531;28;20701;-75
2022/04/08 16:07:21;;;;;;;2.15;1.95;;;8.80;99.90;;;;;;5029531;28;20041;-73
2022/04/08 16:09:48;;;;;;;7.22;2.35;;;8.70;99.90;;;;;;5016931;28;20049;-74
2022/04/08 16:12:15;;;;;;;3.90;2.15;;;8.70;99.90;;;;;;5024276;28;20056;-74
2022/04/08 16:14:43;;;;;;;4.35;2.10;;;8.60;99.90;;;;;;5018939;28;20042;-76
2022/04/08 16:17:10;;;;;;;4.07;2.10;;;8.60;99.90;;;;;;5037007;28;20054;-78
2022/04/08 16:19:39;;;;;;;3.00;1.92;;;8.60;99.90;;;;;;5006705;28;20091;-75
2022/04/08 16:22:07;;;;;;;2.92;2.13;;;8.60;99.90;;;;;;5043419;28;20081;-76
2022/04/08 16:24:36;;;;;;;9.15;2.28;;;8.50;99.90;;;;;;5020856;28;20073;-75
2022/04/08 16:27:04;;;;;;;5.78;2.28;;;8.40;99.90;;;;;;5028630;28;20061;-74
2022/04/08 16:29:31;;;;;;;7.15;3.58;;;8.40;99.90;;;;;;5022048;28;20053;-75
2022/04/08 16:31:59;;;;;;;3.97;2.35;;;8.40;99.90;;;;;;5030704;28;20060;-74
2022/04/08 16:34:27;;;;;;;2.88;1.83;;;8.30;99.90;;;;;;5019488;28;20140;-76
2022/04/08 16:36:58;;;;;;;3.92;2.25;;;8.30;99.90;;;;;;5042618;28;20132;-75
2022/04/08 16:39:26;;;;;;;5.15;2.50;;;8.20;99.90;;;;;;5027800;28;20053;-75
2022/04/08 16:41:54;;;;;;;5.25;2.78;;;8.20;99.90;;;;;;5030991;28;20417;-74
2022/04/08 16:44:22;;;;;;;5.13;2.28;;;8.20;99.90;;;;;;5019918;28;20057;-77
2022/04/08 16:46:50;;;;;;;3.53;2.15;;;8.10;99.90;;;;;;5013887;28;20042;-76
2022/04/08 16:49:17;;;;;;;4.43;2.30;;;8.10;99.90;;;;;;5025229;28;20046;-74
2022/04/08 16:51:44;;;;;;;4.68;1.98;;;8.00;99.90;;;;;;5028011;28;20076;-75
2022/04/08 16:54:12;;;;;;;4.43;1.85;;;8.00;99.90;;;;;;5018364;28;20525;-75
2022/04/08 16:56:40;;;;;;;13.02;4.57;;;7.90;99.90;;;;;;5012397;28;20083;-75
2022/04/08 16:59:08;;;;;;;4.97;2.60;;;7.90;99.90;;;;;;5020130;28;20481;-75
2022/04/08 17:01:36;;;;;;;3.78;1.80;;;7.80;99.90;;;;;;5025848;28;20518;-75
2022/04/08 17:04:05;;;;;;;2.10;1.70;;;7.80;99.90;;;;;;5026889;28;20046;-75
2022/04/08 17:06:33;;;;;;;3.42;3.13;;;7.70;99.90;;;;;;5017054;28;20049;-75
2022/04/08 17:09:01;;;;;;;6.68;4.45;;;7.70;99.90;;;;;;5028041;28;20057;-76
2022/04/08 17:11:29;;;;;;;5.72;4.88;;;7.60;99.90;;;;;;5024224;28;20072;-75
2022/04/08 17:13:56;;;;;;;8.35;5.20;;;7.60;99.90;;;;;;5042563;28;20136;-76
2022/04/08 17:16:25;;;;;;;8.82;6.13;;;7.50;99.90;;;;;;5027604;28;20049;-76
2022/04/08 17:18:52;;;;;;;9.43;5.70;;;7.50;99.90;;;;;;5027873;28;20089;-77
2022/04/08 17:21:20;;;;;;;10.55;6.10;;;7.50;99.90;;;;;;5023679;28;20176;-74
2022/04/08 17:23:47;;;;;;;8.98;6.15;;;7.40;99.90;;;;;;5014404;28;20070;-73
2022/04/08 17:26:14;;;;;;;7.25;6.45;;;7.40;99.90;;;;;;5026549;28;20048;-75
2022/04/08 17:28:42;;;;;;;9.02;6.93;;;7.30;99.90;;;;;;5024001;28;20161;-70
2022/04/08 17:31:11;;;;;;;8.43;7.18;;;7.30;99.90;;;;;;5019304;28;20057;-71
2022/04/08 17:33:40;;;;;;;7.75;6.38;;;7.20;99.90;;;;;;5018222;28;20037;-70
2022/04/08 17:36:08;;;;;;;15.75;10.27;;;7.20;99.90;;;;;;5026357;28;20045;-69
2022/04/08 17:38:36;;;;;;;11.80;6.95;;;7.10;99.90;;;;;;5023641;28;20560;-71
2022/04/08 17:41:04;;;;;;;6.80;6.15;;;7.10;99.90;;;;;;5029913;28;20144;-76
2022/04/08 17:43:34;;;;;;;5.75;5.18;;;7.10;99.90;;;;;;5021115;28;20085;-77
2022/04/08 17:46:03;;;;;;;5.85;5.00;;;7.10;99.90;;;;;;5013616;28;20541;-76
2022/04/08 17:48:31;;;;;;;11.50;5.43;;;7.10;99.90;;;;;;5013574;28;20518;-77
2022/04/08 17:51:00;;;;;;;4.72;4.22;;;7.00;99.90;;;;;;5039905;28;20056;-77
2022/04/08 17:53:29;;;;;;;3.67;3.25;;;7.00;99.90;;;;;;5029454;28;20044;-71
2022/04/08 17:55:58;;;;;;;4.25;3.20;;;7.00;99.90;;;;;;5023354;28;20049;-71
2022/04/08 17:58:25;;;;;;;5.97;3.33;;;7.00;99.90;;;;;;5014571;28;20060;-69
2022/04/08 18:00:53;;;;;;;4.00;2.78;;;7.00;99.90;;;;;;5017207;28;20052;-71
2022/04/08 18:03:24;;;;;;;2.80;2.60;;;7.00;99.90;;;;;;5030417;28;20053;-71
2022/04/08 18:05:55;;;;;;;3.88;3.10;;;6.90;99.90;;;;;;5012549;28;20050;-77
2022/04/08 18:09:04;;;;;;;9.45;2.97;;;7.00;99.90;;;;;;5029065;28;20046;-71
2022/04/08 18:11:37;;;;;;;3.30;2.88;;;6.90;99.90;;;;;;5026218;28;20453;-76
2022/04/08 18:14:08;;;;;;;4.35;3.20;;;6.90;99.90;;;;;;5026137;28;20058;-75
2022/04/08 18:16:41;;;;;;;6.93;3.40;;;6.90;99.90;;;;;;5005309;28;20107;-70
2022/04/08 18:19:09;;;;;;;6.43;3.17;;;6.90;99.90;;;;;;5024659;28;20084;-71
2022/04/08 18:21:36;;;;;;;5.15;3.08;;;6.80;99.90;;;;;;5041931;28;20344;-71
2022/04/08 18:24:08;;;;;;;3.38;2.97;;;6.80;99.90;;;;;;5023308;28;20050;-71
2022/04/08 18:26:36;;;;;;;4.07;3.65;;;6.80;99.90;;;;;;5008375;28;20104;-77
2022/04/08 18:29:03;;;;;;;4.88;4.13;;;6.80;99.90;;;;;;5004608;28;20042;-71
2022/04/08 18:31:31;;;;;;;4.32;3.08;;;6.90;99.90;;;;;;5022672;28;20453;-70
2022/04/08 18:33:58;;;;;;;7.80;3.95;;;6.90;99.90;;;;;;5020278;28;20052;-69
2022/04/08 18:36:26;;;;;;;4.45;4.03;;;6.90;99.90;;;;;;5019465;28;20104;-76
2022/04/08 18:38:53;;;;;;;5.60;4.00;;;6.90;99.90;;;;;;5015302;28;20038;-69
2022/04/08 18:41:22;;;;;;;6.80;4.10;;;6.90;99.90;;;;;;5018163;28;20068;-69
2022/04/08 18:43:49;;;;;;;7.80;3.85;;;6.90;99.90;;;;;;5027632;28;20061;-70
2022/04/08 18:46:17;;;;;;;5.57;4.22;;;7.00;99.90;;;;;;5025000;28;20050;-71
2022/04/08 18:48:54;;;;;;;6.25;4.32;;;6.90;99.90;;;;;;5022483;28;20046;-76
2022/04/08 18:51:25;;;;;;;7.85;4.78;;;6.90;99.90;;;;;;5020291;28;20061;-74
2022/04/08 18:53:55;;;;;;;6.10;3.85;;;6.90;99.90;;;;;;5023154;28;20045;-71
2022/04/08 18:56:24;;;;;;;4.50;3.88;;;6.80;99.90;;;;;;5020452;28;20108;-76
2022/04/08 18:58:52;;;;;;;7.05;4.57;;;6.90;99.90;;;;;;5025770;28;20145;-74
2022/04/08 19:01:20;;;;;;;4.35;3.63;;;6.90;99.90;;;;;;5009450;28;20509;-72
2022/04/08 19:03:48;;;;;;;6.80;3.95;;;6.90;99.90;;;;;;5025282;28;20056;-74
2022/04/08 19:06:18;;;;;;;7.82;3.30;;;6.90;99.90;;;;;;5023151;28;20046;-73
2022/04/08 19:08:48;;;;;;;5.10;3.30;;;6.90;99.90;;;;;;5011876;28;20509;-72
2022/04/08 19:11:16;;;;;;;5.05;4.05;;;6.90;99.90;;;;;;5023299;28;20445;-72
2022/04/08 19:13:48;;;;;;;3.60;2.85;;;6.90;99.90;;;;;;5020478;28;20159;-74
2022/04/08 19:16:16;;;;;;;3.80;3.10;;;6.90;99.90;;;;;;5016046;28;20054;-73
2022/04/08 19:18:46;;;;;;;3.55;3.00;;;6.90;99.90;;;;;;5019335;28;20077;-76
2022/04/08 19:21:14;;;;;;;5.03;2.63;;;6.90;99.90;;;;;;5019185;28;20087;-76
2022/04/08 19:23:45;;;;;;;5.05;3.30;;;7.00;99.90;;;;;;5013066;28;20425;-73
2022/04/08 19:29:55;;;;;;;3.78;2.28;;;7.10;99.90;;;;;;5002600;28;20544;-75
2022/04/08 19:32:24;;;;;;;7.35;3.00;;;7.30;99.90;;;;;;5026220;28;20077;-75
2022/04/08 19:35:36;;;;;;;7.40;2.15;;;7.20;99.90;;;;;;5012324;28;20054;-76
2022/04/08 19:38:10;;;;;;;4.20;2.03;;;7.30;99.90;;;;;;4948498;28;20061;-74
2022/04/08 19:40:38;;;;;;;2.53;2.05;;;7.30;99.90;;;;;;5031154;28;20045;-75
2022/04/08 19:43:23;;;;;;;2.88;2.00;;;7.30;99.90;;;;;;5012140;28;20378;-74
2022/04/08 19:45:58;;;;;;;4.18;2.53;;;7.30;99.90;;;;;;5031036;28;20388;-76
2022/04/08 19:48:25;;;;;;;4.03;1.70;;;7.30;99.90;;;;;;5039494;28;20068;-77
2022/04/08 19:50:54;;;;;;;6.88;1.50;;;7.30;99.90;;;;;;5030693;28;20556;-75
2022/04/08 19:53:24;;;;;;;1.98;1.60;;;7.30;99.90;;;;;;5030295;28;20095;-76
2022/04/08 19:55:52;;;;;;;2.50;1.52;;;7.20;99.90;;;;;;5017892;28;20050;-76
2022/04/08 19:58:20;;;;;;;3.13;2.33;;;7.20;99.90;;;;;;5023053;28;20052;-75
2022/04/08 20:00:48;;;;;;;3.22;2.50;;;7.20;99.90;;;;;;5029298;28;20473;-75
2022/04/08 20:03:16;;;;;;;9.77;2.25;;;7.20;99.90;;;;;;5029864;28;20045;-75
2022/04/08 20:05:44;;;;;;;9.30;2.97;;;7.20;99.90;;;;;;5030482;28;20115;-76
2022/04/08 20:08:12;;;;;;;10.35;4.50;;;7.20;99.90;;;;;;5031787;28;20449;-76
2022/04/08 20:10:40;;;;;;;12.85;3.45;;;7.20;99.90;;;;;;5014443;28;20049;-76
2022/04/08 20:13:07;;;;;;;6.72;2.20;;;7.20;99.90;;;;;;5046366;28;20049;-76
2022/04/08 20:15:50;;;;;;;3.50;1.80;;;7.30;99.90;;;;;;5026623;28;20053;-76
2022/04/08 20:18:25;;;;;;;11.30;2.40;;;7.20;99.90;;;;;;5044747;28;20050;-75
2022/04/08 20:20:53;;;;;;;7.30;2.30;;;7.20;99.90;;;;;;4978163;28;20049;-75
2022/04/08 20:23:36;;;;;;;3.58;1.67;;;7.10;99.90;;;;;;5030460;28;20049;-76
2022/04/08 20:26:20;;;;;;;5.15;1.52;;;7.20;99.90;;;;;;5024286;28;20075;-74
2022/04/08 20:29:14;;;;;;;2.33;2.03;;;7.10;99.90;;;;;;5010618;28;21211;-74
2022/04/08 20:31:54;;;;;;;3.97;2.10;;;7.00;99.90;;;;;;5011807;28;20557;-77
2022/04/08 20:34:24;;;;;;;5.15;2.15;;;6.90;99.90;;;;;;5008235;28;20053;-76
2022/04/08 20:37:02;;;;;;;5.05;2.20;;;6.80;99.90;;;;;;5031906;28;20065;-75
2022/04/08 20:39:39;;;;;;;2.15;0.98;;;6.70;99.90;;;;;;5031755;28;20059;-74
2022/04/08 20:42:09;;;;;;;2.55;1.10;;;6.60;99.90;;;;;;5029956;28;20072;-76
2022/04/08 20:44:38;;;;;;;1.60;0.80;;;6.30;99.90;;;;;;5030961;28;20073;-73
2022/04/08 20:47:13;;;;;;;1.73;0.80;;;6.20;99.90;;;;;;5017096;28;20060;-73
2022/04/08 20:49:50;;;;;;;1.58;0.70;;;6.10;99.90;;;;;;5012146;28;20101;-73
2022/04/08 20:52:26;;;;;;;;;;;6.10;99.90;;;;;;5024469;28;20045;-77
2022/04/08 20:54:54;;;;;;;1.23;0.45;;;6.10;99.90;;;;;;5028729;28;19947;-76
2022/04/08 20:57:22;;;;;;;1.40;0.90;;;6.00;99.90;;;;;;5030911;28;20064;-75
2022/04/08 20:59:49;;;;;;;2.47;1.25;;;6.00;99.90;;;;;;5028736;28;20057;-74
2022/04/08 21:02:16;;;;;;;6.13;1.63;;;6.10;99.90;;;;;;5030563;28;20061;-76
2022/04/08 21:04:44;;;;;;;4.45;1.85;;;6.00;99.90;;;;;;5030996;28;20502;-76
2022/04/08 21:07:13;;;;;;;3.95;1.90;;;6.10;99.90;;;;;;5028622;28;20061;-76
2022/04/08 21:09:40;;;;;;;5.28;1.98;;;6.00;99.90;;;;;;5028110;28;20143;-76
2022/04/08 21:12:09;;;;;;;4.28;2.00;;;6.00;99.90;;;;;;5029292;28;20077;-75
2022/04/08 21:14:37;;;;;;;6.28;2.05;;;6.00;99.90;;;;;;5046127;28;20457;-72
2022/04/08 21:17:05;;;;;;;2.60;1.40;;;5.90;99.90;;;;;;5012073;28;20510;-74
2022/04/08 21:19:33;;;;;;;5.63;2.05;;;5.90;99.90;;;;;;5010555;28;20050;-73
2022/04/08 21:22:00;;;;;;;2.67;0.82;;;5.80;99.90;;;;;;5028830;28;20087;-73
2022/04/08 21:24:30;;;;;;;2.17;0.98;;;5.80;99.90;;;;;;5011251;28;20053;-77
2022/04/08 21:27:04;;;;;;;1.00;0.52;;;5.70;99.90;;;;;;5010192;28;20100;-77
2022/04/08 21:29:33;;;;;;;1.95;0.50;;;5.60;99.90;;;;;;4993022;28;20046;-75
2022/04/08 21:32:00;;;;;;;1.40;0.60;;;5.60;99.90;;;;;;5011407;28;20488;-75
2022/04/08 21:34:28;;;;;;;3.20;0.80;;;5.50;99.90;;;;;;5029397;28;20533;-76
2022/04/08 21:36:55;;;;;;;2.17;0.85;;;5.50;99.90;;;;;;5028354;28;20058;-75
2022/04/08 21:39:23;;;;;;;0.68;0.45;;;5.50;99.90;;;;;;5030746;28;20056;-75
2022/04/08 21:41:51;;;;;;;1.27;0.57;;;5.40;99.90;;;;;;5030299;28;20115;-76
2022/04/08 21:44:19;;;;;;;3.85;2.45;;;5.40;99.90;;;;;;5029036;28;20045;-76
2022/04/08 21:46:46;;;;;;;2.17;0.70;;;5.30;99.90;;;;;;5027972;28;20045;-75
2022/04/08 21:49:16;;;;;;;4.63;0.93;;;5.30;99.90;;;;;;5030261;28;20096;-75
2022/04/08 21:51:44;;;;;;;2.65;0.80;;;5.30;99.90;;;;;;5028538;28;20064;-74
2022/04/08 21:54:12;;;;;;;3.13;0.80;;;5.30;99.90;;;;;;5038783;28;20514;-74
2022/04/08 21:56:40;;;;;;;1.40;0.57;;;5.20;99.90;;;;;;5030766;28;20081;-75
2022/04/08 21:59:09;;;;;;;1.35;0.50;;;5.20;99.90;;;;;;5032620;28;20529;-75
2022/04/08 22:01:43;;;;;;;0.73;0.50;;;5.10;99.90;;;;;;5032310;28;20049;-76
2022/04/08 22:04:11;;;;;;;1.77;0.60;;;5.10;99.90;;;;;;5031677;28;20421;-75
2022/04/08 22:06:41;;;;;;;2.08;0.50;;;5.10;99.90;;;;;;5015343;28;20037;-74